Time;durP1;ratioP1;P1;durP2;ratioP2;P2;SDS_P1;SDS_P2;PMS_P1;PMS_P2;Temp;Humidity;BMP_temperature;BMP_pressure;BME280_temperature;BME280_humidity;BME280_pressure;Samples;Min_cycle;Max_cycle;Signal;HPM_P1;HPM_P2
2023/01/31 00:01:19;;;;;;;;;;;;;;;1.70;100.00;102360.03;5053437;28;19924;-58
2023/01/31 00:03:46;;;;;;;;;;;;;;;1.68;100.00;102363.00;5052944;28;20360;-59
2023/01/31 00:06:14;;;;;;;;;;;;;;;1.69;100.00;102364.69;5053462;28;19912;-58
2023/01/31 00:08:39;;;;;;;;;;;;;;;1.66;100.00;102361.50;5052836;28;19952;-57
2023/01/31 00:11:05;;;;;;;;;;;;;;;1.67;100.00;102365.91;5053198;28;20375;-57
2023/01/31 00:13:30;;;;;;;;;;;;;;;1.70;100.00;102370.97;5051924;28;20332;-57
2023/01/31 00:15:55;;;;;;;;;;;;;;;1.68;100.00;102381.22;5053476;28;19920;-58
2023/01/31 00:18:20;;;;;;;;;;;;;;;1.69;100.00;102382.91;5053286;28;19913;-57
2023/01/31 00:20:46;;;;;;;;;;;;;;;1.66;100.00;102376.00;5053002;28;20050;-57
2023/01/31 00:23:11;;;;;;;;;;;;;;;1.65;100.00;102376.22;5052899;28;20368;-57
2023/01/31 00:25:36;;;;;;;;;;;;;;;1.68;100.00;102387.53;5053094;28;19913;-57
2023/01/31 00:28:01;;;;;;;;;;;;;;;1.67;100.00;102393.19;5052708;28;20006;-57
2023/01/31 00:30:27;;;;;;;;;;;;;;;1.64;100.00;102378.09;5052886;28;19917;-58
2023/01/31 00:32:52;;;;;;;;;;;;;;;1.61;100.00;102388.56;5052723;28;19914;-57
2023/01/31 00:35:17;;;;;;;;;;;;;;;1.70;100.00;102385.44;5052766;28;19920;-58
2023/01/31 00:37:42;;;;;;;;;;;;;;;1.65;100.00;102393.41;5052862;28;19958;-57
2023/01/31 00:40:08;;;;;;;;;;;;;;;1.65;100.00;102381.66;5045267;28;19917;-56
2023/01/31 00:42:33;;;;;;;;;;;;;;;1.64;100.00;102383.53;5052783;28;20323;-56
2023/01/31 00:44:58;;;;;;;;;;;;;;;1.64;100.00;102375.34;5052523;28;20398;-57
2023/01/31 00:47:23;;;;;;;;;;;;;;;1.60;100.00;102370.53;5052650;28;20367;-57
2023/01/31 00:49:48;;;;;;;;;;;;;;;1.57;100.00;102371.78;5052619;28;20373;-58
2023/01/31 00:52:14;;;;;;;;;;;;;;;1.58;100.00;102378.06;5051809;28;19920;-57
2023/01/31 00:54:39;;;;;;;;;;;;;;;1.59;100.00;102377.88;5052134;28;19916;-57
2023/01/31 00:57:04;;;;;;;;;;;;;;;1.56;100.00;102368.19;5051947;28;19924;-56
2023/01/31 00:59:29;;;;;;;;;;;;;;;1.51;100.00;102383.53;5052371;28;19925;-58
2023/01/31 01:01:54;;;;;;;;;;;;;;;1.48;100.00;102371.13;5051928;28;20455;-57
2023/01/31 01:04:20;;;;;;;;;;;;;;;1.42;100.00;102360.25;5051865;28;19917;-58
2023/01/31 01:06:46;;;;;;;;;;;;;;;1.50;100.00;102368.22;5052142;28;19923;-58
2023/01/31 01:09:11;;;;;;;;;;;;;;;1.47;100.00;102371.34;5052346;28;19923;-58
2023/01/31 01:11:37;;;;;;;;;;;;;;;1.47;100.00;102369.44;5050871;28;19917;-58
2023/01/31 01:14:02;;;;;;;;;;;;;;;1.49;100.00;102363.81;5051448;28;20326;-57
2023/01/31 01:16:30;;;;;;;;;;;;;;;1.45;100.00;102348.91;5052247;28;20425;-57
2023/01/31 01:18:56;;;;;;;;;;;;;;;1.43;100.00;102340.94;5050633;28;19908;-59
2023/01/31 01:21:23;;;;;;;;;;;;;;;1.50;100.00;102338.22;5052081;28;19924;-59
2023/01/31 01:23:48;;;;;;;;;;;;;;;1.40;100.00;102336.75;5051964;28;19935;-58
2023/01/31 01:26:21;;;;;;;;;;;;;;;1.38;100.00;102330.66;5051911;28;20361;-57
2023/01/31 01:28:47;;;;;;;;;;;;;;;1.38;100.00;102329.78;5051975;28;19908;-58
2023/01/31 01:31:15;;;;;;;;;;;;;;;1.42;100.00;102325.63;5050605;28;19917;-58
2023/01/31 01:33:40;;;;;;;;;;;;;;;1.38;100.00;102322.47;5050248;28;19912;-58
2023/01/31 01:36:06;;;;;;;;;;;;;;;1.38;100.00;102325.19;5051772;28;19913;-57
2023/01/31 01:38:36;;;;;;;;;;;;;;;1.36;100.00;102334.63;5051213;28;19923;-58
2023/01/31 01:41:01;;;;;;;;;;;;;;;1.32;100.00;102325.19;5045463;28;19919;-57
2023/01/31 01:43:43;;;;;;;;;;;;;;;1.28;100.00;102332.06;5050354;28;19913;-56
2023/01/31 01:46:10;;;;;;;;;;;;;;;1.28;100.00;102324.75;5051826;28;19917;-57
2023/01/31 01:48:35;;;;;;;;;;;;;;;1.25;100.00;102333.34;5051505;28;19913;-56
2023/01/31 01:51:03;;;;;;;;;;;;;;;1.25;100.00;102325.16;5051040;28;20359;-56
2023/01/31 01:53:28;;;;;;;;;;;;;;;1.25;100.00;102316.97;5050357;28;20334;-57
2023/01/31 01:55:56;;;;;;;;;;;;;;;1.19;100.00;102312.38;5050516;28;19921;-56
2023/01/31 01:58:25;;;;;;;;;;;;;;;1.23;100.00;102319.06;5050521;28;19954;-58
2023/01/31 02:00:51;;;;;;;;;;;;;;;1.24;100.00;102318.88;5051435;28;19912;-56
2023/01/31 02:03:16;;;;;;;;;;;;;;;1.26;100.00;102324.13;5051236;28;20303;-59
2023/01/31 02:05:44;;;;;;;;;;;;;;;1.24;100.00;102312.56;5051327;28;20279;-57
2023/01/31 02:08:11;;;;;;;;;;;;;;;1.30;100.00;102316.34;5051605;28;19924;-58
2023/01/31 02:10:45;;;;;;;;;;;;;;;1.38;100.00;102325.19;5051506;28;19935;-58
2023/01/31 02:13:11;;;;;;;;;;;;;;;1.31;100.00;102340.72;5051595;28;20032;-59
2023/01/31 02:15:37;;;;;;;;;;;;;;;1.36;100.00;102324.56;5051185;28;19917;-58
2023/01/31 02:18:02;;;;;;;;;;;;;;;1.36;100.00;102332.72;5051218;28;19920;-57
2023/01/31 02:20:44;;;;;;;;;;;;;;;1.35;100.00;102338.41;5051233;28;19913;-57
2023/01/31 02:23:12;;;;;;;;;;;;;;;1.31;100.00;102342.59;5051352;28;19912;-57
2023/01/31 02:25:43;;;;;;;;;;;;;;;1.28;100.00;102341.13;5051938;28;19912;-57
2023/01/31 02:28:14;;;;;;;;;;;;;;;1.31;100.00;102340.72;5055410;28;19912;-58
2023/01/31 02:30:42;;;;;;;;;;;;;;;1.34;100.00;102348.44;5055266;28;19912;-56
2023/01/31 02:33:33;;;;;;;;;;;;;;;1.38;100.00;102348.88;5055305;28;19913;-57
2023/01/31 02:36:13;;;;;;;;;;;;;;;1.44;100.00;102342.63;5053887;28;19919;-58
2023/01/31 02:38:59;;;;;;;;;;;;;;;1.46;100.00;102345.13;5054224;28;20345;-57
2023/01/31 02:41:42;;;;;;;;;;;;;;;1.52;100.00;102350.59;5051647;28;20047;-57
2023/01/31 02:46:57;;;;;;;;;;;;;;;1.50;100.00;102328.13;5055077;28;20430;-59
2023/01/31 02:49:42;;;;;;;;;;;;;;;1.51;100.00;102329.81;5055108;28;19965;-58
2023/01/31 02:52:23;;;;;;;;;;;;;;;1.47;100.00;102327.72;5054616;28;19961;-59
2023/01/31 02:57:38;;;;;;;;;;;;;;;1.44;100.00;102328.13;5055154;28;19939;-58
2023/01/31 03:00:04;;;;;;;;;;;;;;;1.42;100.00;102320.16;5054871;28;19916;-57
2023/01/31 03:02:29;;;;;;;;;;;;;;;1.45;100.00;102325.19;5053916;28;19955;-59
2023/01/31 03:04:54;;;;;;;;;;;;;;;1.51;100.00;102329.81;5054871;28;19940;-57
2023/01/31 03:07:25;;;;;;;;;;;;;;;1.51;100.00;102326.25;5054361;28;20376;-62
2023/01/31 03:10:09;;;;;;;;;;;;;;;1.54;100.00;102317.63;5054831;28;19920;-56
2023/01/31 03:12:49;;;;;;;;;;;;;;;1.56;100.00;102321.00;5054141;28;19974;-57
2023/01/31 03:15:16;;;;;;;;;;;;;;;1.56;100.00;102321.84;5054350;28;19927;-56
2023/01/31 03:18:04;;;;;;;;;;;;;;;1.53;100.00;102321.41;5054103;28;19917;-58
2023/01/31 03:20:39;;;;;;;;;;;;;;;1.65;100.00;102316.19;5054065;28;19920;-58
2023/01/31 03:23:09;;;;;;;;;;;;;;;1.60;100.00;102307.78;5054388;28;20011;-58
2023/01/31 03:25:36;;;;;;;;;;;;;;;1.71;100.00;102315.34;5054225;28;19913;-57
2023/01/31 03:28:05;;;;;;;;;;;;;;;1.69;100.00;102323.75;5052944;28;19991;-56
2023/01/31 03:30:40;;;;;;;;;;;;;;;1.65;100.00;102311.56;5052548;28;19924;-56
2023/01/31 03:33:14;;;;;;;;;;;;;;;1.74;100.00;102301.28;5054282;28;19916;-57
2023/01/31 03:35:41;;;;;;;;;;;;;;;1.77;100.00;102292.66;5054224;28;19913;-58
2023/01/31 03:38:13;;;;;;;;;;;;;;;1.81;100.00;102309.44;5053656;28;19956;-57
2023/01/31 03:41:11;;;;;;;;;;;;;;;1.84;100.00;102301.66;5047065;28;19913;-59
2023/01/31 03:43:42;;;;;;;;;;;;;;;1.95;100.00;102294.75;5041708;28;19917;-61
2023/01/31 03:46:12;;;;;;;;;;;;;;;1.92;100.00;102297.06;5053892;28;19919;-57
2023/01/31 03:48:40;;;;;;;;;;;;;;;1.95;100.00;102291.16;5054202;28;19923;-58
2023/01/31 03:51:07;;;;;;;;;;;;;;;1.98;100.00;102280.69;5054030;28;19912;-57
2023/01/31 03:53:32;;;;;;;;;;;;;;;1.92;100.00;102281.53;5052766;28;20358;-57
2023/01/31 03:56:09;;;;;;;;;;;;;;;2.02;100.00;102276.47;5053794;28;20003;-57
2023/01/31 03:58:38;;;;;;;;;;;;;;;1.98;100.00;102279.84;5054004;28;19959;-56
2023/01/31 04:01:06;;;;;;;;;;;;;;;2.00;100.00;102275.84;5052619;28;19913;-56
2023/01/31 04:03:31;;;;;;;;;;;;;;;2.02;100.00;102281.91;5054056;28;19966;-58
2023/01/31 04:05:56;;;;;;;;;;;;;;;2.08;100.00;102272.03;5053863;28;20334;-57
2023/01/31 04:08:21;;;;;;;;;;;;;;;2.03;100.00;102266.41;5051544;28;19917;-57
2023/01/31 04:10:47;;;;;;;;;;;;;;;2.04;100.00;102281.69;5053411;28;19956;-61
2023/01/31 04:13:12;;;;;;;;;;;;;;;2.05;100.00;102266.19;5053444;28;19955;-57
2023/01/31 04:15:37;;;;;;;;;;;;;;;2.05;100.00;102272.47;5053148;28;19925;-58
2023/01/31 04:18:02;;;;;;;;;;;;;;;2.08;100.00;102282.13;5053546;28;19917;-57
2023/01/31 04:20:28;;;;;;;;;;;;;;;1.98;100.00;102275.22;5051755;28;19939;-58
2023/01/31 04:22:53;;;;;;;;;;;;;;;1.92;100.00;102275.22;5052034;28;19917;-58
2023/01/31 04:25:18;;;;;;;;;;;;;;;1.92;100.00;102276.06;5053397;28;19920;-58
2023/01/31 04:27:43;;;;;;;;;;;;;;;1.84;100.00;102279.00;5053086;28;19920;-56
2023/01/31 04:30:09;;;;;;;;;;;;;;;1.83;100.00;102272.72;5052957;28;19916;-57
2023/01/31 04:32:34;;;;;;;;;;;;;;;1.82;100.00;102262.88;5053122;28;19923;-57
2023/01/31 04:34:59;;;;;;;;;;;;;;;1.85;100.00;102267.88;5053109;28;19999;-58
2023/01/31 04:37:24;;;;;;;;;;;;;;;1.75;100.00;102263.91;5045560;28;19936;-57
2023/01/31 04:39:50;;;;;;;;;;;;;;;1.78;100.00;102272.50;5052841;28;20299;-57
2023/01/31 04:42:15;;;;;;;;;;;;;;;1.78;100.00;102274.41;5052780;28;20000;-57
2023/01/31 04:44:40;;;;;;;;;;;;;;;1.80;100.00;102270.41;5052762;28;19919;-58
2023/01/31 04:47:05;;;;;;;;;;;;;;;1.75;100.00;102258.47;5052894;28;19913;-57
2023/01/31 04:49:30;;;;;;;;;;;;;;;1.73;100.00;102264.13;5051672;28;19931;-58
2023/01/31 04:51:56;;;;;;;;;;;;;;;1.72;100.00;102251.53;5052623;28;19912;-57
2023/01/31 04:54:21;;;;;;;;;;;;;;;1.71;100.00;102249.88;5052526;28;19916;-58
2023/01/31 04:56:46;;;;;;;;;;;;;;;1.61;100.00;102238.53;5052428;28;19913;-57
2023/01/31 04:59:11;;;;;;;;;;;;;;;1.61;100.00;102241.28;5051808;28;20003;-58
2023/01/31 05:01:36;;;;;;;;;;;;;;;1.68;100.00;102231.19;5052157;28;19912;-58
2023/01/31 05:04:02;;;;;;;;;;;;;;;1.64;100.00;102229.94;5052210;28;20003;-58
2023/01/31 05:06:27;;;;;;;;;;;;;;;1.60;100.00;102232.25;5052292;28;19913;-57
2023/01/31 05:08:53;;;;;;;;;;;;;;;1.52;100.00;102224.25;5052131;28;19913;-58
2023/01/31 05:11:18;;;;;;;;;;;;;;;1.56;100.00;102231.81;5052021;28;19948;-57
2023/01/31 05:13:44;;;;;;;;;;;;;;;1.58;100.00;102225.31;5051746;28;19917;-58
2023/01/31 05:16:10;;;;;;;;;;;;;;;1.63;100.00;102233.72;5051856;28;20336;-58
2023/01/31 05:18:36;;;;;;;;;;;;;;;1.78;100.00;102234.31;5052100;28;20375;-58
2023/01/31 05:21:02;;;;;;;;;;;;;;;1.78;100.00;102236.22;5052049;28;19971;-58
2023/01/31 05:23:27;;;;;;;;;;;;;;;1.79;100.00;102225.06;5051916;28;20315;-57
2023/01/31 05:25:52;;;;;;;;;;;;;;;1.76;100.00;102225.50;5051964;28;19912;-57
2023/01/31 05:28:18;;;;;;;;;;;;;;;1.74;100.00;102222.16;5052569;28;19920;-56
2023/01/31 05:30:43;;;;;;;;;;;;;;;1.78;100.00;102222.56;5050515;28;20372;-58
2023/01/31 05:33:08;;;;;;;;;;;;;;;1.78;100.00;102212.47;5052056;28;19920;-58
2023/01/31 05:35:34;;;;;;;;;;;;;;;1.77;100.00;102223.63;5052067;28;19919;-57
2023/01/31 05:37:59;;;;;;;;;;;;;;;1.85;100.00;102216.03;5052028;28;19920;-57
2023/01/31 05:40:24;;;;;;;;;;;;;;;1.90;100.00;102203.66;5042970;28;20347;-56
2023/01/31 05:42:56;;;;;;;;;;;;;;;1.98;100.00;102198.81;5051712;28;19923;-57
2023/01/31 05:45:22;;;;;;;;;;;;;;;1.99;100.00;102199.63;5051879;28;20273;-57
2023/01/31 05:47:47;;;;;;;;;;;;;;;2.01;100.00;102203.81;5050673;28;20374;-57
2023/01/31 05:50:12;;;;;;;;;;;;;;;2.09;100.00;102199.16;5051656;28;20266;-57
2023/01/31 05:52:37;;;;;;;;;;;;;;;2.08;100.00;102190.13;5051774;28;20412;-58
2023/01/31 05:55:03;;;;;;;;;;;;;;;2.07;100.00;102196.66;5051729;28;19924;-56
2023/01/31 05:57:28;;;;;;;;;;;;;;;2.15;100.00;102195.59;5051450;28;19924;-57
2023/01/31 05:59:53;;;;;;;;;;;;;;;2.07;100.00;102191.19;5051438;28;19923;-57
2023/01/31 06:02:18;;;;;;;;;;;;;;;2.15;100.00;102196.41;5049967;28;20015;-57
2023/01/31 06:04:43;;;;;;;;;;;;;;;2.31;100.00;102197.81;5050362;28;19986;-57
2023/01/31 06:07:09;;;;;;;;;;;;;;;2.16;100.00;102202.72;5050755;28;20399;-58
2023/01/31 06:09:36;;;;;;;;;;;;;;;2.21;100.00;102207.53;5050543;28;19960;-59
2023/01/31 06:12:01;;;;;;;;;;;;;;;2.19;100.00;102196.81;5050533;28;19919;-58
2023/01/31 06:14:26;;;;;;;;;;;;;;;2.37;100.00;102195.25;5051398;28;19917;-58
2023/01/31 06:16:51;;;;;;;;;;;;;;;2.21;100.00;102197.44;5048907;28;20054;-59
2023/01/31 06:19:16;;;;;;;;;;;;;;;2.27;100.00;102193.00;5049886;28;19977;-58
2023/01/31 06:21:42;;;;;;;;;;;;;;;2.37;100.00;102189.78;5049853;28;19966;-59
2023/01/31 06:24:07;;;;;;;;;;;;;;;2.30;100.00;102192.59;5049382;28;19939;-58
2023/01/31 06:26:32;;;;;;;;;;;;;;;2.37;100.00;102193.38;5049801;28;20443;-59
2023/01/31 06:28:58;;;;;;;;;;;;;;;2.33;100.00;102192.97;5049665;28;19917;-58
2023/01/31 06:31:23;;;;;;;;;;;;;;;2.33;100.00;102192.97;5049319;28;20163;-56
2023/01/31 06:33:48;;;;;;;;;;;;;;;2.36;100.00;102193.59;5049830;28;20047;-57
2023/01/31 06:36:14;;;;;;;;;;;;;;;2.48;100.00;102184.50;5042258;28;19938;-58
2023/01/31 06:38:39;;;;;;;;;;;;;;;2.43;100.00;102188.94;5048065;28;19963;-57
2023/01/31 06:41:05;;;;;;;;;;;;;;;2.42;100.00;102174.44;5049484;28;19952;-59
2023/01/31 06:43:30;;;;;;;;;;;;;;;2.49;100.00;102178.00;5049112;28;19920;-56
2023/01/31 06:45:55;;;;;;;;;;;;;;;2.58;100.00;102175.00;5047649;28;19912;-58
2023/01/31 06:48:20;;;;;;;;;;;;;;;2.52;100.00;102162.19;5049303;28;19913;-59
2023/01/31 06:50:46;;;;;;;;;;;;;;;2.53;100.00;102152.94;5048795;28;19912;-59
2023/01/31 06:53:11;;;;;;;;;;;;;;;2.46;100.00;102159.28;5049162;28;19966;-59
2023/01/31 06:55:36;;;;;;;;;;;;;;;2.52;100.00;102162.19;5048642;28;20011;-58
2023/01/31 06:58:02;;;;;;;;;;;;;;;2.52;100.00;102171.25;5049683;28;20439;-59
2023/01/31 07:00:28;;;;;;;;;;;;;;;2.43;100.00;102175.28;5049314;28;20364;-62
2023/01/31 07:02:54;;;;;;;;;;;;;;;2.44;100.00;102185.97;5048720;28;19917;-58
2023/01/31 07:05:19;;;;;;;;;;;;;;;2.45;100.00;102171.28;5048381;28;19922;-58
2023/01/31 07:07:44;;;;;;;;;;;;;;;2.42;100.00;102166.22;5048754;28;19995;-59
2023/01/31 07:10:11;;;;;;;;;;;;;;;2.39;100.00;102157.66;5047133;28;20291;-59
2023/01/31 07:12:36;;;;;;;;;;;;;;;2.59;100.00;102158.38;5032526;28;20016;-58
2023/01/31 07:15:01;;;;;;;;;;;;;;;2.55;100.00;102154.38;5033011;28;20007;-59
2023/01/31 07:17:26;;;;;;;;;;;;;;;2.56;100.00;102158.78;5034240;28;19917;-56
2023/01/31 07:19:51;;;;;;;;;;;;;;;2.83;100.00;102155.91;5034166;28;19952;-56
2023/01/31 07:22:17;;;;;;;;;;;;;;;2.76;100.00;102149.63;5033977;28;19935;-57
2023/01/31 07:24:42;;;;;;;;;;;;;;;2.80;100.00;102153.59;5034079;28;19959;-57
2023/01/31 07:27:07;;;;;;;;;;;;;;;2.90;100.00;102134.81;5034399;28;20340;-59
2023/01/31 07:29:32;;;;;;;;;;;;;;;2.94;100.00;102127.81;5034190;28;20431;-58
2023/01/31 07:31:58;;;;;;;;;;;;;;;2.84;100.00;102135.69;5026211;28;20487;-57
2023/01/31 07:34:23;;;;;;;;;;;;;;;2.87;100.00;102135.25;5032455;28;19913;-57
2023/01/31 07:36:49;;;;;;;;;;;;;;;3.07;100.00;102134.25;5032176;28;19913;-56
2023/01/31 07:39:14;;;;;;;;;;;;;;;3.09;100.00;102134.88;5032566;28;19917;-56
2023/01/31 07:41:39;;;;;;;;;;;;;;;3.11;100.00;102146.44;5028444;28;19971;-57
2023/01/31 07:44:07;;;;;;;;;;;;;;;3.21;100.00;102141.25;5030267;28;19921;-56
2023/01/31 07:46:32;;;;;;;;;;;;;;;3.34;100.00;102142.19;5029138;28;19917;-57
2023/01/31 07:48:57;;;;;;;;;;;;;;;3.37;100.00;102139.84;5029671;28;19921;-58
2023/01/31 07:51:23;;;;;;;;;;;;;;;3.40;100.00;102127.66;5027336;28;19924;-57
2023/01/31 07:53:48;;;;;;;;;;;;;;;3.44;100.00;102120.63;5032991;28;19987;-57
2023/01/31 07:56:14;;;;;;;;;;;;;;;3.48;100.00;102130.09;5047752;28;19916;-58
2023/01/31 07:58:40;;;;;;;;;;;;;;;3.49;100.00;102118.06;5048267;28;19916;-57
2023/01/31 08:03:50;;;;;;;;;;;;;;;3.52;100.00;102123.06;5049838;28;19971;-58
2023/01/31 08:06:15;;;;;;;;;;;;;;;3.65;100.00;102122.09;5050943;28;19927;-58
2023/01/31 08:08:41;;;;;;;;;;;;;;;3.56;100.00;102110.63;5051398;28;20367;-58
2023/01/31 08:11:06;;;;;;;;;;;;;;;3.62;100.00;102108.88;5052033;28;19960;-58
2023/01/31 08:13:32;;;;;;;;;;;;;;;3.72;100.00;102100.13;5051712;28;19928;-57
2023/01/31 08:15:58;;;;;;;;;;;;;;;3.70;100.00;102103.09;5051737;28;19992;-57
2023/01/31 08:18:23;;;;;;;;;;;;;;;3.65;100.00;102105.66;5051626;28;19912;-57
2023/01/31 08:20:48;;;;;;;;;;;;;;;3.70;100.00;102104.97;5051326;28;20414;-57
2023/01/31 08:23:13;;;;;;;;;;;;;;;3.70;100.00;102094.88;5051000;28;19970;-58
2023/01/31 08:25:39;;;;;;;;;;;;;;;3.70;100.00;102104.97;5051082;28;19912;-58
2023/01/31 08:28:04;;;;;;;;;;;;;;;3.74;100.00;102106.22;5051186;28;19993;-58
2023/01/31 08:30:29;;;;;;;;;;;;;;;3.69;100.00;102095.09;5049494;28;19912;-56
2023/01/31 08:32:55;;;;;;;;;;;;;;;3.89;100.00;102101.16;5051056;28;19921;-59
2023/01/31 08:35:20;;;;;;;;;;;;;;;3.76;100.00;102087.66;5051153;28;19924;-57
2023/01/31 08:37:45;;;;;;;;;;;;;;;3.73;100.00;102088.94;5049262;28;19916;-56
2023/01/31 08:40:11;;;;;;;;;;;;;;;3.84;100.00;102086.50;5050736;28;19963;-57
2023/01/31 08:42:36;;;;;;;;;;;;;;;3.80;100.00;102088.84;5049026;28;19982;-59
2023/01/31 08:45:01;;;;;;;;;;;;;;;3.83;100.00;102082.94;5050822;28;20292;-59
2023/01/31 08:47:26;;;;;;;;;;;;;;;3.81;100.00;102084.22;5050638;28;19919;-59
2023/01/31 08:49:51;;;;;;;;;;;;;;;4.04;100.00;102078.84;5050528;28;19924;-58
2023/01/31 08:52:17;;;;;;;;;;;;;;;4.02;100.00;102072.75;5050476;28;19919;-59
2023/01/31 08:54:42;;;;;;;;;;;;;;;4.10;100.00;102060.66;5050542;28;19917;-57
2023/01/31 08:57:07;;;;;;;;;;;;;;;4.10;100.00;102068.06;5050822;28;20070;-57
2023/01/31 08:59:32;;;;;;;;;;;;;;;4.06;100.00;102060.28;5050392;28;19967;-57
2023/01/31 09:01:57;;;;;;;;;;;;;;;4.19;100.00;102052.97;5050598;28;19921;-57
2023/01/31 09:04:23;;;;;;;;;;;;;;;4.26;100.00;102069.28;5050656;28;20051;-57
2023/01/31 09:06:48;;;;;;;;;;;;;;;4.35;100.00;102059.66;5050104;28;20007;-58
2023/01/31 09:09:13;;;;;;;;;;;;;;;4.28;100.00;102073.47;5050030;28;20241;-58
2023/01/31 09:11:39;;;;;;;;;;;;;;;4.30;100.00;102065.00;5050070;28;19917;-57
2023/01/31 09:14:04;;;;;;;;;;;;;;;4.39;100.00;102062.78;5050208;28;20247;-57
2023/01/31 09:16:29;;;;;;;;;;;;;;;4.40;100.00;102048.00;5050104;28;19916;-58
2023/01/31 09:18:55;;;;;;;;;;;;;;;4.53;100.00;102059.56;5048517;28;19928;-58
2023/01/31 09:21:22;;;;;;;;;;;;;;;4.42;100.00;102051.34;5049879;28;19923;-58
2023/01/31 09:23:47;;;;;;;;;;;;;;;4.56;100.00;102036.38;5049698;28;20394;-58
2023/01/31 09:26:13;;;;;;;;;;;;;;;4.68;100.00;102020.75;5050058;28;19913;-59
2023/01/31 09:28:42;;;;;;;;;;;;;;;4.75;100.00;102037.09;5049891;28;19916;-58
2023/01/31 09:31:09;;;;;;;;;;;;;;;4.90;100.00;102038.53;5049626;28;19917;-58
2023/01/31 09:33:35;;;;;;;;;;;;;;;4.86;100.00;102042.81;5049665;28;19916;-57
2023/01/31 09:36:05;;;;;;;;;;;;;;;4.87;100.00;102045.31;5049067;28;20381;-58
2023/01/31 09:38:30;;;;;;;;;;;;;;;4.99;100.00;102045.34;5048325;28;19917;-58
2023/01/31 09:40:58;;;;;;;;;;;;;;;4.95;100.00;102046.88;5048115;28;20338;-58
2023/01/31 09:43:27;;;;;;;;;;;;;;;5.05;100.00;102033.41;5049536;28;19919;-57
2023/01/31 09:45:55;;;;;;;;;;;;;;;5.11;100.00;102026.13;5049729;28;19965;-58
2023/01/31 09:48:23;;;;;;;;;;;;;;;5.19;100.00;102023.00;5049489;28;19983;-56
2023/01/31 09:50:55;;;;;;;;;;;;;;;5.12;100.00;102028.59;5049417;28;19923;-58
2023/01/31 09:53:22;;;;;;;;;;;;;;;5.17;100.00;102032.56;5049946;28;19935;-58
2023/01/31 09:55:50;;;;;;;;;;;;;;;5.24;100.00;102034.06;5050518;28;19913;-58
2023/01/31 09:58:21;;;;;;;;;;;;;;;5.23;100.00;102013.22;5050615;28;20632;-58
2023/01/31 10:00:50;;;;;;;;;;;;;;;5.25;100.00;102024.78;5051051;28;19920;-59
2023/01/31 10:03:21;;;;;;;;;;;;;;;5.30;100.00;102032.28;5050686;28;20605;-58
2023/01/31 10:05:52;;;;;;;;;;;;;;;5.26;100.00;102023.69;5050859;28;20023;-58
2023/01/31 10:08:38;;;;;;;;;;;;;;;5.43;100.00;102039.44;5051016;28;19913;-57
2023/01/31 10:11:06;;;;;;;;;;;;;;;5.34;100.00;102038.16;5050592;28;19952;-58
2023/01/31 10:13:35;;;;;;;;;;;;;;;5.35;100.00;102023.31;5048734;28;19912;-57
2023/01/31 10:16:03;;;;;;;;;;;;;;;5.36;100.00;102020.34;5050287;28;20351;-58
2023/01/31 10:18:32;;;;;;;;;;;;;;;5.44;100.00;102021.88;5050438;28;19916;-58
2023/01/31 10:21:04;;;;;;;;;;;;;;;5.52;100.00;102017.91;5050202;28;19917;-58
2023/01/31 10:23:50;;;;;;;;;;;;;;;5.55;100.00;102023.75;5049232;28;19917;-59
2023/01/31 10:26:19;;;;;;;;;;;;;;;5.52;100.00;102024.25;5047521;28;19921;-58
2023/01/31 10:28:49;;;;;;;;;;;;;;;5.36;100.00;102033.22;5049331;28;20059;-58
2023/01/31 10:31:20;;;;;;;;;;;;;;;5.53;100.00;102031.38;5049008;28;20317;-58
2023/01/31 10:33:51;;;;;;;;;;;;;;;5.41;100.00;102028.69;5049226;28;20012;-59
2023/01/31 10:36:25;;;;;;;;;;;;;;;5.52;100.00;102037.13;5049062;28;19927;-57
2023/01/31 10:39:03;;;;;;;;;;;;;;;5.58;100.00;102033.41;5049449;28;19917;-58
2023/01/31 10:41:37;;;;;;;;;;;;;;;5.43;100.00;102026.53;5047350;28;20007;-59
2023/01/31 10:44:05;;;;;;;;;;;;;;;5.53;100.00;102025.91;5049077;28;19916;-57
2023/01/31 10:46:30;;;;;;;;;;;;;;;5.63;100.00;102033.53;5049384;28;20355;-58
2023/01/31 10:48:56;;;;;;;;;;;;;;;5.61;100.00;102027.44;5051381;28;19928;-59
2023/01/31 10:51:34;;;;;;;;;;;;;;;5.69;100.00;102024.31;5052790;28;20282;-59
2023/01/31 10:54:17;;;;;;;;;;;;;;;5.82;100.00;102006.69;5052905;28;19920;-58
2023/01/31 10:56:44;;;;;;;;;;;;;;;5.89;100.00;102006.56;5051353;28;19963;-58
2023/01/31 10:59:17;;;;;;;;;;;;;;;5.94;100.00;102007.50;5052592;28;19924;-56
2023/01/31 11:01:42;;;;;;;;;;;;;;;5.87;100.00;102014.19;5052594;28;20007;-59
2023/01/31 11:04:22;;;;;;;;;;;;;;;5.91;100.00;102004.41;5052565;28;19991;-56
2023/01/31 11:06:47;;;;;;;;;;;;;;;6.07;100.00;101998.13;5052346;28;20554;-57
2023/01/31 11:09:13;;;;;;;;;;;;;;;6.05;100.00;101996.72;5052582;28;19920;-58
2023/01/31 11:11:51;;;;;;;;;;;;;;;6.13;100.00;101992.75;5052062;28;19917;-58
2023/01/31 11:14:17;;;;;;;;;;;;;;;6.21;100.00;101986.84;5052261;28;19964;-58
2023/01/31 11:16:43;;;;;;;;;;;;;;;6.26;100.00;101977.84;5052440;28;19955;-58
2023/01/31 11:19:16;;;;;;;;;;;;;;;6.18;100.00;101979.09;5052082;28;20046;-58
2023/01/31 11:21:47;;;;;;;;;;;;;;;6.30;100.00;101971.59;5052311;28;20447;-58
2023/01/31 11:24:23;;;;;;;;;;;;;;;6.35;100.00;101959.84;5052266;28;19924;-58
2023/01/31 11:26:54;;;;;;;;;;;;;;;6.25;100.00;101957.75;5052193;28;19917;-59
2023/01/31 11:29:30;;;;;;;;;;;;;;;6.24;100.00;101961.59;5052066;28;19924;-59
2023/01/31 11:31:57;;;;;;;;;;;;;;;6.21;100.00;101973.91;5051868;28;19916;-57
2023/01/31 11:34:23;;;;;;;;;;;;;;;6.12;100.00;101967.16;5050965;28;20431;-57
2023/01/31 11:36:49;;;;;;;;;;;;;;;6.18;100.00;101974.44;5051936;28;19923;-59
2023/01/31 11:39:23;;;;;;;;;;;;;;;6.29;100.00;101961.69;5052232;28;19916;-58
2023/01/31 11:41:49;;;;;;;;;;;;;;;6.21;100.00;101968.41;5050077;28;19920;-59
2023/01/31 11:44:14;;;;;;;;;;;;;;;6.19;100.00;101962.34;5050549;28;19917;-57
2023/01/31 11:46:48;;;;;;;;;;;;;;;6.14;100.00;101956.78;5051965;28;19940;-56
2023/01/31 11:49:18;;;;;;;;;;;;;;;6.08;100.00;101964.09;5051604;28;19924;-57
2023/01/31 11:51:44;;;;;;;;;;;;;;;6.19;100.00;101953.28;5051575;28;20011;-58
2023/01/31 11:54:13;;;;;;;;;;;;;;;6.34;100.00;101956.25;5051619;28;20020;-58
2023/01/31 11:56:38;;;;;;;;;;;;;;;6.09;100.00;101959.44;5051797;28;19923;-58
2023/01/31 11:59:07;;;;;;;;;;;;;;;6.06;100.00;101954.44;5051215;28;19917;-59
2023/01/31 12:01:34;;;;;;;;;;;;;;;6.11;100.00;101939.94;5051737;28;19917;-58
2023/01/31 12:04:00;;;;;;;;;;;;;;;6.18;100.00;101949.72;5051290;28;19916;-58
2023/01/31 12:06:26;;;;;;;;;;;;;;;6.08;100.00;101947.59;5051881;28;19912;-58
2023/01/31 12:08:55;;;;;;;;;;;;;;;6.11;100.00;101954.50;5051371;28;19992;-58
2023/01/31 12:11:20;;;;;;;;;;;;;;;6.04;100.00;101951.09;5051782;28;19924;-58
2023/01/31 12:13:50;;;;;;;;;;;;;;;6.20;100.00;101954.94;5051366;28;19921;-58
2023/01/31 12:16:19;;;;;;;;;;;;;;;6.16;100.00;101946.38;5051262;28;19921;-58
2023/01/31 12:18:47;;;;;;;;;;;;;;;6.15;100.00;101947.44;5051369;28;19916;-57
2023/01/31 12:21:13;;;;;;;;;;;;;;;6.20;100.00;101936.53;5051355;28;19916;-58
2023/01/31 12:23:42;;;;;;;;;;;;;;;6.30;100.00;101948.78;5051155;28;20281;-58
2023/01/31 12:26:16;;;;;;;;;;;;;;;6.15;100.00;101949.34;5051284;28;19917;-58
2023/01/31 12:29:02;;;;;;;;;;;;;;;6.18;100.00;101943.38;5051243;28;19927;-59
2023/01/31 12:31:41;;;;;;;;;;;;;;;6.19;100.00;101937.59;5049522;28;19948;-58
2023/01/31 12:34:12;;;;;;;;;;;;;;;6.18;100.00;101943.38;5051089;28;20015;-56
2023/01/31 12:36:54;;;;;;;;;;;;;;;6.09;100.00;101935.53;5050912;28;19982;-58
2023/01/31 12:39:25;;;;;;;;;;;;;;;6.11;100.00;101937.22;5050690;28;20269;-58
2023/01/31 12:41:57;;;;;;;;;;;;;;;5.98;100.00;101936.41;5048849;28;19913;-58
2023/01/31 12:44:31;;;;;;;;;;;;;;;6.08;100.00;101941.28;5050806;28;20272;-58
2023/01/31 12:47:08;;;;;;;;;;;;;;;6.13;100.00;101946.84;5050749;28;19967;-58